Time;durP1;ratioP1;P1;durP2;ratioP2;P2;SDS_P1;SDS_P2;PMS_P1;PMS_P2;Temp;Humidity;BMP_temperature;BMP_pressure;BME280_temperature;BME280_humidity;BME280_pressure;Samples;Min_cycle;Max_cycle;Signal;HPM_P1;HPM_P2
2021/09/18 00:05:07;;;;;;;7.60;6.90;;;;;;;13.43;81.88;98893.44;476913;1183;141421;-58
2021/09/18 00:15:13;;;;;;;6.70;6.20;;;;;;;13.39;81.98;98894.42;477688;1189;144762;-58
2021/09/18 00:25:19;;;;;;;9.10;6.90;;;;;;;13.37;81.97;98896.06;477784;1190;142499;-58
2021/09/18 00:35:24;;;;;;;8.00;7.20;;;;;;;13.36;81.88;98896.48;477098;1189;141189;-58
2021/09/18 00:45:30;;;;;;;7.40;6.80;;;;;;;13.27;81.95;98895.34;477727;1190;141189;-58
2021/09/18 00:55:36;;;;;;;8.30;7.60;;;;;;;13.20;82.01;98893.08;477766;1182;141849;-58
2021/09/18 01:05:42;;;;;;;8.30;7.40;;;;;;;13.11;82.29;98894.69;477084;1189;141945;-59
2021/09/18 01:15:49;;;;;;;7.20;6.50;;;;;;;13.05;82.33;98895.71;466102;1189;141703;-57
2021/09/18 01:25:57;;;;;;;6.70;6.20;;;;;;;13.00;82.61;98898.11;469548;1190;164201;-58
2021/09/18 01:36:03;;;;;;;7.40;6.80;;;;;;;12.96;82.80;98897.77;477607;1190;141374;-60
2021/09/18 01:46:09;;;;;;;7.90;7.20;;;;;;;12.94;82.86;98889.32;477913;1189;140568;-60
2021/09/18 01:56:15;;;;;;;7.70;7.00;;;;;;;12.91;82.91;98881.13;476926;1190;160021;-60
2021/09/18 02:06:20;;;;;;;9.10;8.20;;;;;;;12.84;83.02;98874.20;477744;1190;144528;-59
2021/09/18 02:16:26;;;;;;;10.30;9.40;;;;;;;12.80;83.17;98870.70;469913;1191;192773;-58
2021/09/18 02:26:32;;;;;;;9.00;8.30;;;;;;;12.80;83.23;98867.52;466351;1190;141733;-59
2021/09/18 02:36:38;;;;;;;10.00;9.20;;;;;;;12.75;83.43;98861.07;477546;1190;141881;-59
2021/09/18 02:46:43;;;;;;;7.70;6.90;;;;;;;12.72;83.43;98859.89;477371;1190;142504;-59
2021/09/18 02:56:49;;;;;;;6.80;6.30;;;;;;;12.72;83.50;98859.01;469905;1190;142550;-58
2021/09/18 03:06:55;;;;;;;6.10;5.70;;;;;;;12.68;83.52;98854.07;475715;1189;141292;-59
2021/09/18 03:17:00;;;;;;;8.10;7.20;;;;;;;12.60;83.63;98852.98;476578;1191;142059;-59
2021/09/18 03:27:06;;;;;;;5.90;5.30;;;;;;;12.56;83.92;98850.03;477716;1189;141531;-59
2021/09/18 03:37:12;;;;;;;5.50;5.00;;;;;;;12.47;84.01;98844.08;475313;1189;146548;-59
2021/09/18 03:47:18;;;;;;;5.50;5.10;;;;;;;12.39;84.18;98841.02;476977;1189;142038;-59
2021/09/18 03:57:24;;;;;;;5.90;5.00;;;;;;;12.30;84.34;98843.17;473251;1189;142064;-57
2021/09/18 04:07:29;;;;;;;6.00;5.50;;;;;;;12.27;84.55;98840.27;469902;1190;141027;-58
2021/09/18 04:17:35;;;;;;;7.30;6.50;;;;;;;12.28;84.57;98842.47;476533;1189;142352;-59
2021/09/18 04:27:41;;;;;;;5.60;5.10;;;;;;;12.21;84.59;98845.87;477763;1190;141311;-59
2021/09/18 04:37:47;;;;;;;5.70;5.20;;;;;;;12.14;84.87;98846.27;462646;1191;143149;-58
2021/09/18 04:47:53;;;;;;;10.40;5.30;;;;;;;12.17;84.95;98850.78;460475;1191;141825;-58
2021/09/18 04:57:58;;;;;;;6.10;5.50;;;;;;;12.16;85.10;98851.40;467672;1188;141760;-60
2021/09/18 05:08:04;;;;;;;4.80;4.30;;;;;;;12.17;85.26;98852.49;475591;1190;141214;-58
2021/09/18 05:18:10;;;;;;;4.90;4.50;;;;;;;12.31;85.17;98859.27;461206;1185;140991;-58
2021/09/18 05:28:16;;;;;;;5.10;4.70;;;;;;;12.33;85.15;98862.98;470185;1181;142113;-58
2021/09/18 05:38:21;;;;;;;5.00;4.50;;;;;;;12.30;85.16;98863.54;460906;1190;145862;-59
2021/09/18 05:48:27;;;;;;;9.20;8.30;;;;;;;12.27;85.18;98868.38;477838;1190;184413;-59
2021/09/18 05:58:33;;;;;;;7.20;6.60;;;;;;;12.21;85.28;98873.80;477878;1190;141164;-63
2021/09/18 06:08:39;;;;;;;8.40;7.50;;;;;;;12.28;85.34;98878.29;477031;1189;143728;-60
2021/09/18 06:18:44;;;;;;;6.90;6.20;;;;;;;12.33;85.16;98880.54;477771;1190;143258;-60
2021/09/18 06:28:50;;;;;;;8.00;6.90;;;;;;;12.38;85.08;98876.56;472420;1190;141703;-59
2021/09/18 06:38:56;;;;;;;7.80;7.00;;;;;;;12.48;85.13;98873.52;473747;1190;141681;-59
2021/09/18 06:49:02;;;;;;;7.90;7.20;;;;;;;12.59;84.92;98877.33;474331;1190;141705;-58
2021/09/18 06:59:07;;;;;;;8.50;7.70;;;;;;;12.67;84.82;98884.06;468759;1190;143713;-58
2021/09/18 07:09:13;;;;;;;8.80;7.80;;;;;;;12.67;84.76;98890.69;468313;1190;140997;-59
2021/09/18 07:19:19;;;;;;;8.30;7.50;;;;;;;12.75;84.76;98894.07;475353;1190;142249;-59
2021/09/18 07:29:24;;;;;;;8.10;7.40;;;;;;;12.94;84.53;98897.52;461822;1190;141591;-59
2021/09/18 07:39:31;;;;;;;7.90;7.10;;;;;;;13.13;84.22;98898.97;460845;1192;141922;-59
2021/09/18 07:49:37;;;;;;;9.10;7.60;;;;;;;13.09;83.98;98897.52;477551;1191;141780;-60
2021/09/18 07:59:43;;;;;;;9.50;8.50;;;;;;;12.88;84.05;98896.30;476906;1192;141867;-59
2021/09/18 08:09:52;;;;;;;9.80;7.70;;;;;;;13.03;84.15;98899.12;476716;1191;143758;-60
2021/09/18 08:19:58;;;;;;;7.70;7.00;;;;;;;13.25;84.03;98901.60;462370;1190;142305;-60
2021/09/18 08:30:04;;;;;;;7.40;6.70;;;;;;;13.36;83.70;98912.33;477485;1191;141883;-60
2021/09/18 08:40:14;;;;;;;6.50;5.60;;;;;;;13.43;83.54;98915.00;467676;1190;141680;-67
2021/09/18 08:50:22;;;;;;;6.70;5.40;;;;;;;13.53;83.38;98922.98;475683;1190;142361;-67
2021/09/18 09:00:48;;;;;;;4.50;4.10;;;;;;;13.62;83.09;98930.66;477810;1190;141532;-67
2021/09/18 09:10:54;;;;;;;4.20;3.90;;;;;;;13.75;82.94;98933.25;476908;1190;143210;-67
2021/09/18 09:21:18;;;;;;;3.70;3.40;;;;;;;13.77;82.50;98930.76;477506;1183;143418;-70
2021/09/18 09:31:27;;;;;;;3.60;3.30;;;;;;;13.75;82.55;98931.86;477616;1190;141524;-72
2021/09/18 09:41:33;;;;;;;3.60;3.30;;;;;;;13.98;82.32;98932.80;468887;1190;10001453;-73
2021/09/18 09:51:41;;;;;;;3.80;3.50;;;;;;;14.16;81.84;98929.45;477428;1190;143247;-73
2021/09/18 10:01:47;;;;;;;3.20;3.00;;;;;;;14.42;81.40;98929.61;477317;1190;141509;-73
2021/09/18 10:11:56;;;;;;;3.00;2.80;;;;;;;14.55;81.51;98930.21;466401;1190;141222;-71
2021/09/18 10:32:25;;;;;;;1.50;1.30;;;;;;;14.47;81.16;98933.91;464355;1190;141800;-60
2021/09/18 10:42:36;;;;;;;1.60;1.50;;;;;;;14.62;81.19;98935.38;461101;1190;146909;-58
2021/09/18 10:52:43;;;;;;;2.90;1.70;;;;;;;14.57;81.16;98934.80;461622;1190;141091;-59
2021/09/18 11:02:50;;;;;;;1.90;1.80;;;;;;;14.76;81.44;98935.48;454677;1189;10001855;-60
2021/09/18 11:13:26;;;;;;;1.80;1.70;;;;;;;14.97;81.08;98938.95;477643;1183;145248;-61
2021/09/18 11:23:38;;;;;;;1.60;1.50;;;;;;;14.79;80.96;98950.46;470617;1190;141481;-58
2021/09/18 11:33:50;;;;;;;1.60;1.50;;;;;;;14.69;81.10;98946.02;461083;1190;140829;-59
2021/09/18 11:43:56;;;;;;;0.90;0.90;;;;;;;14.64;81.26;98954.23;460697;1189;143334;-58
2021/09/18 11:54:03;;;;;;;1.20;1.00;;;;;;;14.49;80.70;98956.13;461042;1190;141560;-58
2021/09/18 12:04:09;;;;;;;1.60;1.50;;;;;;;14.63;80.40;98959.19;465334;1192;142028;-60
2021/09/18 12:14:15;;;;;;;1.90;1.50;;;;;;;14.46;80.08;98965.02;476950;1189;162440;-60
2021/09/18 12:24:23;;;;;;;3.20;3.00;;;;;;;14.33;79.71;98973.02;470854;1190;142228;-58
2021/09/18 12:34:34;;;;;;;5.80;4.20;;;;;;;14.04;79.30;98984.33;467688;1190;141299;-55
2021/09/18 12:44:41;;;;;;;5.60;5.10;;;;;;;13.68;79.44;98991.33;476864;1190;141143;-59
2021/09/18 12:54:48;;;;;;;8.20;7.60;;;;;;;13.50;79.44;99002.02;477632;1189;141254;-60
2021/09/18 13:04:57;;;;;;;10.00;9.00;;;;;;;13.35;79.41;99014.51;476787;1189;141188;-59
2021/09/18 13:15:12;;;;;;;8.70;7.80;;;;;;;13.05;79.59;99018.42;466855;1190;144014;-58
2021/09/18 13:25:18;;;;;;;12.80;11.50;;;;;;;12.92;79.84;99018.64;475962;1190;141398;-60
2021/09/18 13:35:24;;;;;;;14.50;12.60;;;;;;;12.58;79.94;99018.40;476927;1189;141463;-59
2021/09/18 13:45:31;;;;;;;13.10;12.00;;;;;;;12.68;80.18;99018.95;471173;1190;141197;-58
2021/09/18 13:55:38;;;;;;;17.00;15.10;;;;;;;12.67;79.71;99025.56;466490;1190;141196;-59
2021/09/18 14:05:44;;;;;;;16.20;14.70;;;;;;;12.35;79.74;99025.61;462163;1190;141860;-59
2021/09/18 14:15:51;;;;;;;14.30;13.00;;;;;;;12.15;80.02;99026.89;460589;1176;141385;-58
2021/09/18 14:25:58;;;;;;;9.60;8.80;;;;;;;12.17;80.41;99026.88;459725;1177;141510;-58
2021/09/18 14:36:05;;;;;;;11.20;10.30;;;;;;;11.99;80.28;99028.31;468348;1190;142085;-58
2021/09/18 14:46:11;;;;;;;13.70;12.70;;;;;;;11.74;80.50;99035.87;470660;1189;142052;-59
2021/09/18 14:56:18;;;;;;;13.80;12.50;;;;;;;11.58;80.82;99044.27;463983;1190;142304;-59
2021/09/18 15:06:23;;;;;;;9.80;9.00;;;;;;;11.46;80.79;99047.82;475825;1190;142225;-60
2021/09/18 15:16:29;;;;;;;9.90;9.10;;;;;;;11.33;80.99;99054.53;475257;1190;141958;-60
2021/09/18 15:26:35;;;;;;;9.60;8.70;;;;;;;11.23;81.42;99064.95;476893;1183;141128;-61
2021/09/18 15:36:42;;;;;;;9.70;8.90;;;;;;;11.26;81.69;99071.75;477696;1190;141415;-60
2021/09/18 15:46:49;;;;;;;6.40;5.90;;;;;;;11.22;81.89;99072.73;466292;1190;141912;-59
2021/09/18 15:56:55;;;;;;;4.50;4.20;;;;;;;11.13;82.11;99078.45;477687;1189;142264;-60
2021/09/18 16:07:02;;;;;;;2.90;2.70;;;;;;;11.10;82.31;99081.83;475829;1189;141270;-60
2021/09/18 16:17:08;;;;;;;2.30;2.10;;;;;;;10.97;82.29;99081.71;465255;1190;141744;-60
2021/09/18 16:27:14;;;;;;;2.80;2.60;;;;;;;10.84;82.47;99093.52;467302;1190;141418;-59
2021/09/18 16:37:20;;;;;;;3.70;2.80;;;;;;;10.68;82.64;99103.39;461240;1190;140462;-60
2021/09/18 16:47:26;;;;;;;3.20;2.30;;;;;;;10.58;83.09;99109.44;473276;1190;141768;-59
2021/09/18 16:57:32;;;;;;;2.50;2.30;;;;;;;10.55;83.30;99107.35;477458;1190;142101;-59
2021/09/18 17:07:38;;;;;;;2.50;2.30;;;;;;;10.50;83.29;99112.94;473543;1190;140860;-58
2021/09/18 17:17:45;;;;;;;3.40;3.20;;;;;;;10.39;83.39;99124.52;459569;1191;141793;-60
2021/09/18 17:27:51;;;;;;;4.80;4.40;;;;;;;10.16;83.17;99138.88;477599;1190;141960;-59
2021/09/18 17:37:57;;;;;;;2.70;2.50;;;;;;;10.05;83.23;99140.02;476725;1190;142783;-59
2021/09/18 17:48:03;;;;;;;2.60;2.40;;;;;;;9.91;83.24;99154.27;468479;1191;142006;-59
2021/09/18 17:58:15;;;;;;;3.10;2.90;;;;;;;9.79;83.45;99159.05;465667;1189;140539;-59
2021/09/18 18:08:21;;;;;;;4.00;3.40;;;;;;;9.72;83.42;99173.86;467032;1181;141347;-59
2021/09/18 18:18:27;;;;;;;4.60;4.20;;;;;;;9.73;83.59;99178.52;461399;1191;140436;-59
2021/09/18 18:28:32;;;;;;;4.90;4.50;;;;;;;9.75;83.67;99180.11;475527;1190;140921;-60
2021/09/18 18:38:38;;;;;;;6.10;4.90;;;;;;;9.78;83.72;99183.27;476647;1190;141306;-61
2021/09/18 18:48:44;;;;;;;5.70;5.20;;;;;;;9.79;83.63;99181.92;464834;1190;140670;-58
2021/09/18 18:58:50;;;;;;;6.00;5.60;;;;;;;9.80;83.83;99179.60;475795;1189;144618;-59
2021/09/18 19:08:56;;;;;;;5.60;5.00;;;;;;;9.82;83.50;99177.73;477549;1190;142982;-59
2021/09/18 19:19:01;;;;;;;7.40;6.20;;;;;;;9.78;83.44;99186.90;473074;1190;143805;-58
2021/09/18 19:29:08;;;;;;;11.20;8.70;;;;;;;9.78;83.69;99187.59;459940;1177;142877;-59
2021/09/18 19:39:13;;;;;;;10.10;9.20;;;;;;;9.75;83.60;99191.15;473132;1190;142119;-61
2021/09/18 19:49:19;;;;;;;8.90;8.10;;;;;;;9.73;83.64;99185.46;477773;1191;142004;-60
2021/09/18 19:59:25;;;;;;;7.70;7.00;;;;;;;9.74;83.66;99183.65;467504;1192;141683;-60
2021/09/18 20:09:31;;;;;;;9.90;8.90;;;;;;;9.73;83.54;99188.13;476242;1191;141505;-60
2021/09/18 20:19:37;;;;;;;10.90;9.80;;;;;;;9.58;82.72;99196.28;474832;1190;141089;-59
2021/09/18 20:29:43;;;;;;;12.00;9.20;;;;;;;9.38;82.51;99200.57;468091;1189;143809;-60
2021/09/18 20:39:48;;;;;;;13.50;11.40;;;;;;;9.25;82.26;99199.30;477833;1190;143015;-60
2021/09/18 20:49:54;;;;;;;9.90;9.00;;;;;;;9.15;82.53;99209.90;474483;1189;142028;-55
2021/09/18 21:00:00;;;;;;;10.40;9.50;;;;;;;8.92;82.46;99220.91;467665;1189;206082;-61
2021/09/18 21:10:07;;;;;;;12.60;11.30;;;;;;;8.74;82.55;99235.27;471181;1190;143801;-59
2021/09/18 21:20:15;;;;;;;12.90;11.70;;;;;;;8.59;82.33;99234.11;476413;1191;142653;-59
2021/09/18 21:30:21;;;;;;;11.20;10.00;;;;;;;8.52;82.30;99237.52;477852;1190;141867;-60
2021/09/18 21:40:27;;;;;;;10.70;9.70;;;;;;;8.46;82.21;99239.27;477820;1190;140976;-61
2021/09/18 21:50:33;;;;;;;11.40;10.30;;;;;;;8.37;82.04;99236.10;463655;1190;141617;-59
2021/09/18 22:01:24;;;;;;;9.90;8.90;;;;;;;8.29;82.22;99235.56;468935;1189;142411;-60
2021/09/18 22:11:32;;;;;;;8.80;7.80;;;;;;;8.14;82.38;99240.61;470004;1190;141997;-60
2021/09/18 22:21:38;;;;;;;6.80;6.10;;;;;;;7.89;81.71;99238.38;475448;1190;144770;-60
2021/09/18 22:31:44;;;;;;;5.70;5.20;;;;;;;7.75;81.52;99233.79;463987;1177;141396;-58
2021/09/18 22:41:50;;;;;;;6.70;6.00;;;;;;;7.68;81.45;99248.52;459819;1190;141957;-58
2021/09/18 22:51:55;;;;;;;6.40;5.80;;;;;;;7.63;81.61;99254.57;461697;1189;20002750;-60
2021/09/18 23:02:02;;;;;;;9.40;7.00;;;;;;;7.62;81.73;99254.77;476709;1192;140985;-60
2021/09/18 23:12:09;;;;;;;10.10;9.10;;;;;;;7.61;82.13;99255.01;477467;1190;141554;-60
2021/09/18 23:22:15;;;;;;;10.00;7.60;;;;;;;7.56;82.24;99254.41;477761;1190;140620;-60
2021/09/18 23:32:21;;;;;;;9.30;6.70;;;;;;;7.56;82.13;99252.33;471157;1190;141917;-61
2021/09/18 23:42:27;;;;;;;5.80;5.30;;;;;;;7.55;82.15;99246.65;477855;1189;140687;-60
2021/09/18 23:52:33;;;;;;;5.80;4.60;;;;;;;7.54;82.10;99240.57;474242;1190;141093;-59
